Time;durP1;ratioP1;P1;durP2;ratioP2;P2;SDS_P1;SDS_P2;PMS_P1;PMS_P2;Temp;Humidity;BMP_temperature;BMP_pressure;BME280_temperature;BME280_humidity;BME280_pressure;Samples;Min_cycle;Max_cycle;Signal;HPM_P1;HPM_P2
2021/12/05 00:20:38;;;;;;;8.48;2.38;;;3.30;99.90;;;1.55;100.00;99519.50;2567920;30;138134;-39
2021/12/05 00:23:24;;;;;;;11.70;3.42;;;3.30;99.90;;;1.65;100.00;99520.03;2569421;30;137364;-39
2021/12/05 00:25:57;;;;;;;10.95;2.30;;;3.40;99.90;;;1.74;100.00;99511.91;2566908;30;138968;-39
2021/12/05 00:45:19;;;;;;;7.85;2.55;;;3.80;99.90;;;2.15;100.00;99519.41;2567665;30;138268;-39
2021/12/05 01:14:39;;;;;;;5.80;1.83;;;3.80;99.90;;;2.12;100.00;99517.97;2569612;30;139598;-39
2021/12/05 01:17:08;;;;;;;9.23;2.35;;;3.90;99.90;;;2.14;100.00;99524.00;2569475;30;137415;-39
2021/12/05 01:19:35;;;;;;;9.32;1.80;;;3.90;99.90;;;2.21;100.00;99534.00;2569092;30;140107;-39
2021/12/05 01:22:11;;;;;;;;;;;3.90;99.90;;;2.19;100.00;99539.53;2569495;30;137750;-39
2021/12/05 01:25:01;;;;;;;9.45;1.80;;;4.00;99.90;;;2.18;100.00;99537.88;2569852;30;138235;-39
2021/12/05 01:28:41;;;;;;;9.27;1.40;;;3.90;99.90;;;2.12;100.00;99538.63;2570330;30;137367;-39
2021/12/05 01:30:51;;;;;;;7.22;1.90;;;3.90;99.90;;;2.08;100.00;99545.44;2568131;30;138148;-39
2021/12/05 01:36:05;;;;;;;9.98;1.98;;;3.90;99.90;;;2.02;100.00;99555.06;2566762;30;136770;-39
2021/12/05 02:01:41;;;;;;;12.88;1.92;;;3.90;99.90;;;2.13;100.00;99559.16;2568362;30;137927;-39
2021/12/05 02:09:38;;;;;;;8.20;1.73;;;3.80;99.90;;;2.11;100.00;99566.56;2564182;30;139183;-39
2021/12/05 02:43:10;;;;;;;7.15;1.48;;;3.60;99.90;;;1.83;100.00;99561.88;2567464;30;139053;-39
2021/12/05 02:45:45;;;;;;;9.82;1.90;;;3.60;99.90;;;1.77;100.00;99558.06;2567360;30;136832;-39
2021/12/05 02:48:15;;;;;;;10.20;1.70;;;3.60;99.90;;;1.76;100.00;99561.78;2569119;30;137008;-39
2021/12/05 02:50:44;;;;;;;5.28;1.58;;;3.60;99.90;;;1.84;100.00;99552.78;2567138;30;137591;-39
2021/12/05 02:53:20;;;;;;;7.72;1.55;;;3.60;99.90;;;1.81;100.00;99548.59;2567596;30;138802;-39
2021/12/05 02:55:52;;;;;;;9.93;2.00;;;3.60;99.90;;;1.83;100.00;99549.25;2567721;30;137341;-39
2021/12/05 03:03:26;;;;;;;14.27;2.50;;;3.70;99.90;;;2.03;100.00;99545.16;2567907;30;139149;-39
2021/12/05 03:06:04;;;;;;;6.55;1.85;;;3.70;99.90;;;2.03;100.00;99543.28;2566185;30;137094;-39
2021/12/05 03:08:31;;;;;;;8.37;1.60;;;3.80;99.90;;;2.04;100.00;99547.66;2568806;30;138084;-39
2021/12/05 03:11:01;;;;;;;4.55;1.67;;;3.80;99.90;;;1.97;100.00;99546.75;2568691;30;137333;-39
2021/12/05 03:13:29;;;;;;;6.65;1.73;;;3.70;99.90;;;1.95;100.00;99543.41;2567922;30;139332;-39
2021/12/05 03:16:00;;;;;;;8.98;1.98;;;3.70;99.90;;;1.91;100.00;99547.50;2564033;30;137319;-39
2021/12/05 03:18:28;;;;;;;10.00;1.98;;;3.70;99.90;;;1.90;100.00;99535.06;2567808;30;139832;-39
2021/12/05 03:20:58;;;;;;;7.72;1.80;;;3.70;99.90;;;1.86;100.00;99539.97;2567334;30;137237;-37
2021/12/05 03:23:26;;;;;;;9.27;1.73;;;3.70;99.90;;;1.83;100.00;99538.47;2568131;30;138021;-37
2021/12/05 03:25:54;;;;;;;8.82;1.40;;;3.70;99.90;;;1.86;100.00;99537.28;2568098;30;137159;-37
2021/12/05 03:28:23;;;;;;;8.15;1.85;;;3.70;99.90;;;1.88;100.00;99534.41;2567063;30;139741;-37
2021/12/05 03:30:53;;;;;;;6.80;1.73;;;3.60;99.90;;;1.80;100.00;99530.78;2567273;30;139161;-37
2021/12/05 03:33:21;;;;;;;8.60;2.00;;;3.60;99.90;;;1.79;100.00;99523.75;2566631;30;139788;-37
2021/12/05 03:35:49;;;;;;;7.93;1.85;;;3.60;99.90;;;1.77;100.00;99530.34;2567333;30;138492;-37
2021/12/05 03:38:17;;;;;;;8.00;1.85;;;3.60;99.90;;;1.72;100.00;99530.91;2568325;30;139423;-37
2021/12/05 03:40:45;;;;;;;6.60;1.90;;;3.50;99.90;;;1.73;100.00;99527.19;2568297;30;139667;-37
2021/12/05 03:43:17;;;;;;;7.07;2.00;;;3.50;99.90;;;1.69;100.00;99533.97;2567842;30;138280;-37
2021/12/05 03:45:51;;;;;;;4.40;1.52;;;3.50;99.90;;;1.63;100.00;99526.66;2565666;30;139413;-37
2021/12/05 03:48:23;;;;;;;12.55;1.92;;;3.40;99.90;;;1.67;100.00;99530.63;2567913;30;139655;-37
2021/12/05 03:50:53;;;;;;;8.05;1.90;;;3.50;99.90;;;1.60;100.00;99535.09;2568054;30;138189;-37
2021/12/05 03:53:27;;;;;;;8.27;2.10;;;3.40;99.90;;;1.53;100.00;99533.13;2568262;30;138185;-37
2021/12/05 03:55:57;;;;;;;7.93;1.83;;;3.40;99.90;;;1.44;100.00;99531.53;2568393;30;138669;-37
2021/12/05 03:58:28;;;;;;;8.70;2.45;;;3.30;99.90;;;1.35;100.00;99532.66;2567587;30;136696;-37
2021/12/05 04:00:59;;;;;;;9.45;1.98;;;3.30;99.90;;;1.31;100.00;99532.19;2566304;30;138302;-37
2021/12/05 04:03:30;;;;;;;5.32;1.92;;;3.20;99.90;;;1.28;100.00;99528.00;2567110;30;138942;-37
2021/12/05 04:06:00;;;;;;;7.53;2.13;;;3.20;99.90;;;1.27;100.00;99526.34;2567392;30;139254;-37
2021/12/05 04:08:31;;;;;;;8.38;2.08;;;3.10;99.90;;;1.22;100.00;99528.75;2568549;30;138164;-37
2021/12/05 04:11:11;;;;;;;11.82;1.95;;;3.10;99.90;;;1.32;100.00;99528.47;2567734;30;138600;-37
2021/12/05 04:13:43;;;;;;;13.75;2.00;;;3.10;99.90;;;1.31;100.00;99529.50;2567740;30;139391;-37
2021/12/05 04:16:15;;;;;;;7.82;2.00;;;3.10;99.90;;;1.22;100.00;99526.06;2565688;30;139057;-37
2021/12/05 04:18:46;;;;;;;7.93;1.55;;;3.10;99.90;;;1.21;100.00;99519.00;2567365;30;138371;-37
2021/12/05 04:21:17;;;;;;;3.95;1.58;;;3.10;99.90;;;1.18;100.00;99526.59;2567870;30;138761;-37
2021/12/05 04:23:46;;;;;;;4.68;1.55;;;3.00;99.90;;;1.18;100.00;99527.44;2566513;30;138609;-37
2021/12/05 04:26:18;;;;;;;5.47;1.42;;;3.00;99.90;;;1.18;100.00;99526.59;2568331;30;139865;-37
2021/12/05 04:28:46;;;;;;;6.38;1.42;;;3.00;99.90;;;1.15;100.00;99522.44;2566517;30;139679;-37
2021/12/05 04:31:15;;;;;;;6.32;1.55;;;3.00;99.90;;;1.27;100.00;99534.38;2567123;30;137315;-37
2021/12/05 04:33:43;;;;;;;7.90;1.30;;;3.10;99.90;;;1.26;100.00;99540.78;2566742;30;138285;-37
2021/12/05 04:36:11;;;;;;;3.05;1.33;;;3.10;99.90;;;1.29;100.00;99531.53;2566161;30;138058;-37
2021/12/05 04:38:38;;;;;;;3.42;1.40;;;3.10;99.90;;;1.33;100.00;99534.69;2568273;30;138242;-37
2021/12/05 04:41:07;;;;;;;9.40;1.50;;;3.10;99.90;;;1.37;100.00;99528.75;2564932;30;137340;-37
2021/12/05 04:43:38;;;;;;;6.68;1.27;;;3.20;99.90;;;1.34;100.00;99525.63;2568785;30;138311;-37
2021/12/05 04:46:15;;;;;;;9.15;1.27;;;3.20;99.90;;;1.39;100.00;99529.41;2563505;30;137697;-37
2021/12/05 04:48:49;;;;;;;7.25;1.42;;;3.20;99.90;;;1.40;100.00;99527.56;2568350;30;140432;-37
2021/12/05 04:51:20;;;;;;;5.57;1.45;;;3.20;99.90;;;1.35;100.00;99535.34;2568100;30;136780;-37
2021/12/05 04:53:51;;;;;;;5.65;1.40;;;3.20;99.90;;;1.32;100.00;99522.25;2566960;30;139381;-37
2021/12/05 04:56:21;;;;;;;6.05;1.70;;;3.20;99.90;;;1.37;100.00;99528.75;2566893;30;138160;-37
2021/12/05 04:58:52;;;;;;;6.97;1.30;;;3.20;99.90;;;1.31;100.00;99515.22;2567422;30;138287;-37
2021/12/05 05:01:25;;;;;;;7.03;1.65;;;3.20;99.90;;;1.35;100.00;99511.97;2568754;30;138492;-37
2021/12/05 05:03:54;;;;;;;6.18;1.23;;;3.10;99.90;;;1.34;100.00;99514.88;2567618;30;137105;-37
2021/12/05 05:06:24;;;;;;;6.30;1.88;;;3.20;99.90;;;1.34;100.00;99515.69;2566832;30;136557;-37
2021/12/05 05:08:54;;;;;;;6.20;1.35;;;3.20;99.90;;;1.30;100.00;99514.38;2567332;30;139278;-37
2021/12/05 05:11:26;;;;;;;6.53;1.10;;;3.10;99.90;;;1.29;100.00;99513.53;2567531;30;137248;-37
2021/12/05 05:13:53;;;;;;;5.88;1.30;;;3.10;99.90;;;1.25;100.00;99509.56;2568220;30;137441;-37
2021/12/05 05:16:24;;;;;;;6.20;1.23;;;3.10;99.90;;;1.20;100.00;99516.53;2567366;30;137463;-37
2021/12/05 05:18:55;;;;;;;3.20;1.13;;;3.10;99.90;;;1.10;100.00;99514.91;2567513;30;138361;-37
2021/12/05 05:26:55;;;;;;;7.72;1.58;;;2.90;99.90;;;0.90;100.00;99536.09;2568390;30;137545;-37
2021/12/05 05:29:47;;;;;;;5.82;1.92;;;2.80;99.90;;;0.78;100.00;99537.50;2566833;30;138592;-37
2021/12/05 05:41:03;;;;;;;8.85;1.30;;;2.70;99.90;;;0.83;100.00;99551.25;2567245;30;137060;-37
2021/12/05 05:51:05;;;;;;;4.15;1.17;;;2.70;99.90;;;0.77;100.00;99562.69;2568013;30;138667;-37
2021/12/05 05:53:33;;;;;;;5.43;1.20;;;2.70;99.90;;;0.73;100.00;99556.88;2567571;30;137066;-37
2021/12/05 05:56:03;;;;;;;7.93;1.15;;;2.60;99.90;;;0.74;100.00;99563.06;2567370;30;138251;-37
2021/12/05 05:59:41;;;;;;;5.43;1.13;;;2.60;99.90;;;0.79;100.00;99566.03;2568469;30;137410;-37
2021/12/05 06:04:06;;;;;;;6.10;1.20;;;2.70;99.90;;;0.98;100.00;99567.41;2568144;30;136811;-37
2021/12/05 06:06:34;;;;;;;4.68;1.27;;;2.80;99.90;;;1.04;100.00;99569.38;2567639;30;138608;-37
2021/12/05 06:09:05;;;;;;;5.13;1.10;;;2.80;99.90;;;1.12;100.00;99569.28;2567298;30;138690;-37
2021/12/05 06:11:33;;;;;;;5.30;1.50;;;2.90;99.90;;;1.22;100.00;99565.53;2568542;30;139186;-37
2021/12/05 06:14:01;;;;;;;4.55;0.90;;;3.00;99.90;;;1.27;100.00;99557.75;2569964;30;137396;-37
2021/12/05 06:16:29;;;;;;;;;;;3.10;99.90;;;1.30;100.00;99560.06;2567440;30;138156;-37
2021/12/05 06:18:58;;;;;;;4.65;0.90;;;3.10;99.90;;;1.33;100.00;99569.63;2567931;30;138879;-37
2021/12/05 06:21:25;;;;;;;6.43;1.10;;;3.10;99.90;;;1.40;100.00;99573.25;2567506;30;139286;-37
2021/12/05 06:23:53;;;;;;;4.43;1.10;;;3.20;99.90;;;1.45;100.00;99576.22;2569525;30;137596;-37
2021/12/05 06:26:22;;;;;;;6.00;1.40;;;3.20;99.90;;;1.50;100.00;99587.25;2569610;30;139289;-37
2021/12/05 06:29:17;;;;;;;4.03;1.27;;;3.30;99.90;;;1.55;100.00;99584.84;2568207;30;138205;-37
2021/12/05 06:46:02;;;;;;;10.05;1.90;;;3.40;99.90;;;1.67;100.00;99592.47;2567528;30;137552;-37
2021/12/05 06:47:53;;;;;;;6.25;1.50;;;3.40;99.90;;;1.63;100.00;99594.69;2566916;30;138080;-37
2021/12/05 06:50:21;;;;;;;8.38;1.35;;;3.50;99.90;;;1.63;100.00;99599.25;2568559;30;136745;-37
2021/12/05 06:52:48;;;;;;;6.47;1.35;;;3.40;99.90;;;1.64;100.00;99596.34;2566337;30;138150;-37
2021/12/05 06:55:17;;;;;;;4.53;1.58;;;3.50;99.90;;;1.66;100.00;99607.75;2568015;30;138292;-37
2021/12/05 06:57:46;;;;;;;7.88;1.35;;;3.50;99.90;;;1.68;100.00;99605.72;2568136;30;137829;-37
2021/12/05 07:00:26;;;;;;;8.25;1.38;;;3.50;99.90;;;1.64;100.00;99607.13;2568055;30;137408;-37
2021/12/05 07:02:54;;;;;;;5.35;1.30;;;3.40;99.90;;;1.59;100.00;99609.53;2568345;30;137791;-37
2021/12/05 07:07:59;;;;;;;5.68;1.20;;;3.40;99.90;;;1.66;100.00;99609.63;2567945;30;138347;-37
2021/12/05 07:10:28;;;;;;;5.68;1.42;;;3.40;99.90;;;1.72;100.00;99617.81;2568748;30;138139;-37
2021/12/05 07:14:05;;;;;;;9.55;1.48;;;3.50;99.90;;;1.79;100.00;99612.50;2568427;30;138957;-37
2021/12/05 07:21:27;;;;;;;4.13;1.35;;;3.60;99.90;;;1.87;100.00;99608.88;2566618;30;136938;-37
2021/12/05 07:27:02;;;;;;;3.55;1.17;;;3.60;99.90;;;1.90;100.00;99619.28;2566389;30;137564;-37
2021/12/05 07:42:48;;;;;;;4.63;1.52;;;3.80;99.90;;;2.09;100.00;99636.72;2565251;30;136977;-37
2021/12/05 07:45:23;;;;;;;4.85;1.77;;;3.80;99.90;;;2.08;100.00;99626.97;2567490;30;139293;-37
2021/12/05 07:47:52;;;;;;;5.85;1.35;;;3.80;99.90;;;2.12;100.00;99639.06;2565801;30;137419;-37
2021/12/05 07:50:29;;;;;;;4.15;1.25;;;3.90;99.90;;;2.28;100.00;99634.47;2567481;30;138193;-37
2021/12/05 07:53:05;;;;;;;8.33;1.83;;;3.90;99.90;;;2.27;100.00;99640.88;2565433;30;137398;-37
2021/12/05 07:55:39;;;;;;;5.43;1.58;;;4.00;99.90;;;2.30;100.00;99643.19;2566621;30;139043;-37
2021/12/05 08:14:26;;;;;;;3.58;1.33;;;4.00;99.90;;;2.32;100.00;99656.50;2568392;30;138173;-37
2021/12/05 08:14:54;;;;;;;5.30;1.48;;;4.10;99.90;;;2.41;100.00;99664.28;2567549;30;137369;-37
2021/12/05 08:17:22;;;;;;;6.32;1.88;;;4.10;99.90;;;2.43;100.00;99667.63;2567991;30;139464;-37
2021/12/05 08:19:49;;;;;;;3.95;1.33;;;4.10;99.90;;;2.50;100.00;99678.44;2565354;30;137701;-37
2021/12/05 08:22:17;;;;;;;3.88;1.52;;;4.20;99.90;;;2.50;100.00;99680.31;2567293;30;136684;-37
2021/12/05 08:24:47;;;;;;;6.47;1.88;;;4.20;99.90;;;2.56;100.00;99676.88;2567267;30;137466;-37
2021/12/05 08:27:15;;;;;;;5.38;1.73;;;4.20;99.90;;;2.55;100.00;99683.28;2568177;30;138329;-37
2021/12/05 08:29:51;;;;;;;6.00;1.90;;;4.20;99.90;;;2.55;100.00;99686.81;2566824;30;139420;-37
2021/12/05 08:32:38;;;;;;;6.03;1.58;;;4.30;99.90;;;2.55;100.00;99683.28;2565432;30;136885;-37
2021/12/05 08:35:18;;;;;;;4.28;1.73;;;4.30;99.90;;;2.52;100.00;99680.97;2567634;30;138210;-37
2021/12/05 08:41:31;;;;;;;5.95;1.63;;;4.30;99.90;;;2.51;100.00;99687.38;2566671;30;138475;-37
2021/12/05 08:46:16;;;;;;;3.35;1.38;;;4.20;99.90;;;2.51;100.00;99692.75;2567246;30;136789;-37
2021/12/05 09:30:28;;;;;;;4.10;2.00;;;4.50;99.90;;;2.82;100.00;99742.88;2568259;30;137515;-39
2021/12/05 09:38:50;;;;;;;7.95;2.20;;;4.50;99.90;;;2.91;100.00;99755.19;2567510;30;137292;-39
2021/12/05 10:06:40;;;;;;;4.30;2.22;;;5.00;99.90;;;3.42;100.00;99783.16;2565463;30;138582;-39
2021/12/05 10:09:58;;;;;;;6.25;2.10;;;5.10;99.90;;;3.49;100.00;99776.00;2568703;30;137436;-39
2021/12/05 10:37:27;;;;;;;4.95;2.08;;;5.50;99.90;;;4.01;100.00;99795.56;2567289;30;137368;-39
2021/12/05 10:40:12;;;;;;;4.68;1.92;;;5.60;99.90;;;4.07;100.00;99799.34;2567132;30;138472;-39
2021/12/05 10:42:51;;;;;;;3.80;1.70;;;5.60;99.90;;;4.09;99.80;99799.13;2567970;30;137315;-39
2021/12/05 10:46:04;;;;;;;4.22;1.73;;;5.70;99.90;;;4.17;100.00;99799.84;2568002;30;138134;-39
2021/12/05 10:48:42;;;;;;;4.47;1.42;;;5.70;99.90;;;4.23;99.90;99800.06;2568410;30;137318;-39
2021/12/05 10:51:37;;;;;;;3.58;1.42;;;5.80;99.90;;;4.25;98.93;99801.56;2568017;30;139151;-39
2021/12/05 10:54:23;;;;;;;4.88;1.58;;;5.80;99.90;;;4.26;97.69;99799.72;2566671;30;138454;-39
2021/12/05 10:57:03;;;;;;;3.78;1.35;;;5.80;99.90;;;4.24;95.98;99796.34;2567254;30;137177;-39
2021/12/05 10:59:40;;;;;;;3.50;1.27;;;5.80;99.90;;;4.28;96.10;99806.56;2569488;30;136756;-39
2021/12/05 11:02:14;;;;;;;3.70;1.48;;;5.80;99.90;;;4.32;97.59;99810.53;2569803;30;138333;-39
2021/12/05 11:04:46;;;;;;;4.60;1.92;;;5.90;99.90;;;4.30;96.63;99809.09;2566839;30;137464;-39
2021/12/05 11:07:21;;;;;;;3.05;1.40;;;5.90;99.90;;;4.30;96.97;99809.09;2567801;30;136941;-39
2021/12/05 11:09:57;;;;;;;4.60;1.45;;;5.90;99.90;;;4.31;96.78;99814.28;2567986;30;136769;-39
2021/12/05 11:12:33;;;;;;;4.22;1.67;;;5.90;99.90;;;4.33;96.42;99811.38;2566551;30;138243;-39
2021/12/05 11:15:12;;;;;;;3.75;1.38;;;5.90;99.90;;;4.37;97.02;99814.50;2567814;30;138112;-39
2021/12/05 11:17:46;;;;;;;4.15;1.50;;;5.90;99.90;;;4.38;97.35;99811.63;2568643;30;137891;-39
2021/12/05 11:20:28;;;;;;;3.53;1.50;;;6.00;99.90;;;4.46;96.79;99813.34;2567657;30;136779;-39
2021/12/05 11:22:57;;;;;;;8.15;2.40;;;6.00;99.90;;;4.60;96.69;99808.88;2566769;30;138610;-40
2021/12/05 11:25:29;;;;;;;3.38;1.58;;;6.10;99.90;;;4.67;97.70;99809.75;2566721;30;137378;-39
2021/12/05 11:28:01;;;;;;;5.07;1.92;;;6.20;99.90;;;4.70;96.62;99813.94;2566289;30;138045;-39
2021/12/05 11:30:32;;;;;;;4.88;1.77;;;6.30;99.90;;;4.76;98.17;99807.72;2567155;30;137346;-39
2021/12/05 11:33:20;;;;;;;3.28;1.73;;;6.30;99.90;;;4.78;97.31;99802.13;2566974;30;138187;-39
2021/12/05 11:36:01;;;;;;;4.38;1.90;;;6.30;99.90;;;4.85;96.31;99811.09;2567871;30;137511;-39
2021/12/05 11:38:33;;;;;;;3.13;1.50;;;6.40;99.90;;;4.94;95.57;99812.59;2567627;30;139019;-39
2021/12/05 11:41:14;;;;;;;5.82;1.70;;;6.40;99.90;;;5.01;95.83;99816.16;2568703;30;137497;-39
2021/12/05 11:43:47;;;;;;;3.33;1.63;;;6.50;99.90;;;5.07;95.34;99809.13;2566260;30;138491;-39
2021/12/05 11:46:36;;;;;;;5.82;1.52;;;6.60;99.90;;;5.15;95.00;99814.34;2567302;30;138242;-39
2021/12/05 11:49:16;;;;;;;6.63;1.92;;;6.60;99.90;;;5.11;93.65;99823.91;2568197;30;138450;-39
2021/12/05 11:51:50;;;;;;;4.90;1.90;;;6.60;99.90;;;5.17;93.99;99823.13;2567688;30;137372;-39
2021/12/05 11:54:43;;;;;;;3.78;1.45;;;6.70;99.90;;;5.17;92.98;99824.97;2568207;30;138915;-39
2021/12/05 11:57:24;;;;;;;4.18;1.83;;;6.70;99.90;;;5.12;92.70;99825.56;2566542;30;137824;-39
2021/12/05 11:59:57;;;;;;;4.00;1.48;;;6.70;99.90;;;5.08;92.41;99827.00;2567150;30;138269;-39
2021/12/05 12:02:40;;;;;;;5.72;1.80;;;6.70;99.90;;;5.08;91.58;99823.47;2568447;30;137208;-39
2021/12/05 12:05:33;;;;;;;5.45;1.65;;;6.60;99.90;;;4.98;90.18;99834.66;2567022;30;138833;-39
2021/12/05 12:08:12;;;;;;;3.13;1.52;;;6.60;99.90;;;4.98;92.78;99830.06;2567328;30;138627;-39
2021/12/05 12:10:57;;;;;;;4.85;1.50;;;6.60;99.90;;;5.00;92.18;99835.28;2568607;30;137416;-39
2021/12/05 12:13:35;;;;;;;3.90;1.55;;;6.60;99.90;;;4.91;90.96;99834.63;2567965;30;136873;-39
2021/12/05 12:16:08;;;;;;;2.78;1.23;;;6.60;99.90;;;4.90;90.80;99830.25;2568519;30;137048;-39
2021/12/05 12:18:40;;;;;;;5.28;1.55;;;6.50;99.90;;;4.87;91.41;99831.47;2567357;30;137399;-39
2021/12/05 12:21:39;;;;;;;3.60;1.30;;;6.50;99.90;;;4.89;89.94;99837.50;2566911;30;137686;-39
2021/12/05 12:24:10;;;;;;;4.57;1.30;;;6.50;99.90;;;4.99;91.25;99829.03;2568077;30;136757;-39
2021/12/05 12:26:38;;;;;;;2.78;1.20;;;6.50;99.90;;;5.00;89.62;99828.00;2568652;30;137105;-39
2021/12/05 12:29:08;;;;;;;2.42;1.05;;;6.60;99.90;;;5.08;90.68;99835.13;2567547;30;138444;-39
2021/12/05 12:31:39;;;;;;;6.75;1.15;;;6.60;99.90;;;5.08;88.59;99837.00;2568209;30;137307;-39
2021/12/05 12:34:20;;;;;;;3.00;0.98;;;6.60;99.90;;;5.14;89.51;99828.91;2567388;30;136854;-39
2021/12/05 12:36:58;;;;;;;2.63;1.10;;;6.70;99.90;;;5.29;89.77;99836.88;2566737;30;137302;-39
2021/12/05 12:39:44;;;;;;;3.07;1.03;;;6.80;99.90;;;5.33;88.92;99835.44;2567807;30;137267;-39
2021/12/05 12:42:23;;;;;;;2.67;1.10;;;6.80;99.90;;;5.34;87.98;99838.97;2567269;30;138203;-39
2021/12/05 12:45:21;;;;;;;2.28;1.20;;;6.80;99.90;;;5.43;88.92;99845.03;2564493;30;137580;-39
2021/12/05 12:47:58;;;;;;;3.25;1.25;;;6.90;99.90;;;5.46;86.70;99850.06;2567662;30;138354;-39
2021/12/05 12:50:50;;;;;;;2.45;1.20;;;7.00;99.90;;;5.46;86.82;99848.19;2568135;30;137471;-39
2021/12/05 12:53:27;;;;;;;3.13;1.10;;;7.00;99.90;;;5.44;87.16;99860.25;2567563;30;137058;-39
2021/12/05 12:56:09;;;;;;;1.73;1.20;;;7.00;99.90;;;5.43;87.41;99855.88;2565281;30;137683;-39
2021/12/05 12:58:50;;;;;;;2.33;1.00;;;7.00;99.90;;;5.44;87.12;99858.38;2567093;30;137354;-39
2021/12/05 13:01:41;;;;;;;4.25;1.20;;;7.00;99.90;;;5.42;87.69;99856.91;2568269;30;137041;-39
2021/12/05 13:10:37;;;;;;;2.10;1.00;;;7.00;99.90;;;5.35;85.64;99873.09;2566506;30;138445;-39
2021/12/05 13:13:27;;;;;;;3.95;1.10;;;6.90;99.90;;;5.26;84.91;99869.72;2568503;30;137431;-39
2021/12/05 13:16:18;;;;;;;2.08;1.10;;;6.90;99.90;;;5.22;86.05;99871.16;2566694;30;138119;-39
2021/12/05 13:18:59;;;;;;;3.65;1.10;;;6.90;99.90;;;5.10;86.30;99878.19;2568094;30;138262;-39
2021/12/05 13:21:36;;;;;;;3.80;1.13;;;6.80;99.90;;;5.02;86.76;99866.50;2567118;30;138650;-39
2021/12/05 13:24:26;;;;;;;1.85;1.00;;;6.70;99.90;;;5.00;87.57;99879.38;2568349;30;136916;-39
2021/12/05 13:26:56;;;;;;;4.80;1.25;;;6.60;99.90;;;5.00;87.42;99878.56;2568443;30;137250;-39
2021/12/05 13:29:26;;;;;;;4.18;1.30;;;6.60;99.90;;;4.88;86.79;99884.50;2568429;30;137454;-39
2021/12/05 13:32:10;;;;;;;4.38;1.30;;;6.60;99.90;;;4.89;87.95;99888.88;2565461;30;138641;-39
2021/12/05 13:34:41;;;;;;;3.25;1.40;;;6.50;99.90;;;4.82;86.73;99889.88;2565948;30;137697;-39
2021/12/05 13:37:09;;;;;;;3.25;1.30;;;6.50;99.90;;;4.75;87.30;99887.94;2567424;30;138968;-39
2021/12/05 13:40:10;;;;;;;3.85;1.30;;;6.40;99.90;;;4.71;89.13;99883.97;2565896;30;137291;-39
2021/12/05 13:42:48;;;;;;;3.67;1.50;;;6.40;99.90;;;4.70;89.78;99897.69;2566528;30;138168;-39
2021/12/05 13:45:31;;;;;;;7.40;1.77;;;6.30;99.90;;;4.72;89.26;99888.34;2567957;30;137504;-39
2021/12/05 13:48:01;;;;;;;3.53;1.67;;;6.40;99.90;;;4.69;89.71;99894.16;2568315;30;136817;-39
2021/12/05 13:50:49;;;;;;;3.95;1.48;;;6.30;99.90;;;4.67;90.75;99907.00;2567257;30;140443;-39
2021/12/05 13:53:25;;;;;;;2.33;1.20;;;6.30;99.90;;;4.67;90.67;99911.59;2566731;30;138150;-39
2021/12/05 13:56:05;;;;;;;3.67;1.85;;;6.30;99.90;;;4.68;91.34;99913.28;2566911;30;137437;-39
2021/12/05 13:58:36;;;;;;;3.22;1.48;;;6.30;99.90;;;4.63;91.06;99911.16;2564899;30;138372;-39
2021/12/05 14:01:43;;;;;;;3.30;1.58;;;6.30;99.90;;;4.61;91.09;99918.63;2567081;30;137914;-39
2021/12/05 14:04:19;;;;;;;2.15;1.50;;;6.20;99.90;;;4.59;91.23;99920.69;2566742;30;138929;-39
2021/12/05 14:07:07;;;;;;;4.72;1.60;;;6.20;99.90;;;4.60;91.67;99927.75;2569073;30;137542;-39
2021/12/05 14:09:34;;;;;;;3.53;1.33;;;6.20;99.90;;;4.65;92.01;99933.41;2565684;30;139086;-39
2021/12/05 14:12:23;;;;;;;5.10;1.50;;;6.30;99.90;;;4.65;92.43;99933.41;2568728;30;137725;-39
2021/12/05 14:14:59;;;;;;;3.85;1.60;;;6.30;99.90;;;4.69;92.50;99936.56;2568256;30;138408;-39
2021/12/05 14:17:33;;;;;;;3.08;1.58;;;6.30;99.90;;;4.70;92.02;99935.53;2569173;30;136624;-39
2021/12/05 14:20:11;;;;;;;4.57;1.70;;;6.30;99.90;;;4.70;92.11;99939.03;2568098;30;137443;-39
2021/12/05 14:22:42;;;;;;;4.40;1.47;;;6.30;99.90;;;4.77;91.18;99949.91;2568162;30;137560;-40
2021/12/05 14:25:22;;;;;;;2.63;1.45;;;6.30;99.90;;;4.79;91.83;99952.44;2566687;30;138487;-39
2021/12/05 14:27:55;;;;;;;3.42;1.70;;;6.40;99.90;;;4.78;92.54;99950.78;2567877;30;137615;-39
2021/12/05 14:30:28;;;;;;;3.30;1.63;;;6.40;99.90;;;4.78;91.98;99961.56;2567762;30;138146;-39
2021/12/05 14:33:02;;;;;;;4.25;1.30;;;6.40;99.90;;;4.77;92.53;99966.13;2568499;30;138280;-39
2021/12/05 14:35:38;;;;;;;5.88;1.70;;;6.40;99.90;;;4.74;92.93;99971.94;2567852;30;137705;-39
2021/12/05 14:38:08;;;;;;;2.75;1.55;;;6.40;99.90;;;4.75;92.94;99981.72;2566408;30;137428;-39
2021/12/05 14:40:38;;;;;;;3.42;1.60;;;6.40;99.90;;;4.76;92.89;99983.38;2567902;30;137780;-39
2021/12/05 14:43:11;;;;;;;4.47;1.73;;;6.40;99.90;;;4.70;92.77;99979.56;2568804;30;137704;-39
2021/12/05 14:45:42;;;;;;;2.92;1.65;;;6.30;99.90;;;4.68;93.04;99984.34;2567964;30;137414;-39
2021/12/05 14:48:14;;;;;;;3.10;1.58;;;6.30;99.90;;;4.65;93.68;99979.34;2568278;30;136961;-39
2021/12/05 14:50:53;;;;;;;3.28;1.30;;;6.30;99.90;;;4.59;92.46;99986.34;2567283;30;138552;-39
2021/12/05 14:53:24;;;;;;;3.78;1.42;;;6.20;99.90;;;4.53;92.63;100000.63;2566852;30;137219;-39
2021/12/05 14:55:58;;;;;;;3.30;1.33;;;6.20;99.90;;;4.47;93.31;99996.00;2568925;30;139137;-39
2021/12/05 14:58:28;;;;;;;3.08;1.48;;;6.20;99.90;;;4.43;93.62;100009.03;2568945;30;137802;-39
2021/12/05 15:00:58;;;;;;;3.05;1.40;;;6.10;99.90;;;4.39;94.14;100005.06;2568644;30;138087;-39
2021/12/05 15:03:29;;;;;;;4.68;1.65;;;6.10;99.90;;;4.35;94.87;100001.06;2566931;30;137152;-39
2021/12/05 15:06:02;;;;;;;3.05;1.50;;;6.10;99.90;;;4.31;94.94;100018.69;2568397;30;138353;-39
2021/12/05 15:08:30;;;;;;;2.80;1.50;;;6.00;99.90;;;4.28;95.12;100017.19;2569349;30;138358;-39
2021/12/05 15:11:07;;;;;;;2.65;1.40;;;6.00;99.90;;;4.25;94.93;100019.47;2569392;30;138235;-39
2021/12/05 15:13:35;;;;;;;2.35;1.30;;;6.00;99.90;;;4.23;95.05;100024.19;2567760;30;137506;-39
2021/12/05 15:16:04;;;;;;;3.70;1.58;;;5.90;99.90;;;4.15;95.75;100017.06;2567556;30;137345;-40
2021/12/05 15:18:36;;;;;;;3.03;1.40;;;5.90;99.90;;;4.18;96.21;100022.09;2566189;30;137629;-39
2021/12/05 15:21:04;;;;;;;3.47;1.50;;;5.90;99.90;;;4.15;96.74;100023.28;2570715;30;137362;-37
2021/12/05 15:23:36;;;;;;;2.13;1.30;;;5.90;99.90;;;4.14;96.83;100023.50;2569629;30;136977;-40
2021/12/05 15:26:07;;;;;;;3.10;1.60;;;5.80;99.90;;;4.10;97.03;100032.97;2568019;30;137407;-40
2021/12/05 15:28:36;;;;;;;3.83;1.88;;;5.80;99.90;;;4.11;95.97;100037.34;2570777;30;137532;-40
2021/12/05 15:31:06;;;;;;;4.43;1.75;;;5.80;99.90;;;4.08;96.23;100041.28;2568907;30;138388;-40
2021/12/05 15:33:34;;;;;;;4.25;1.30;;;5.80;99.90;;;4.07;96.62;100047.69;2568469;30;137811;-40
2021/12/05 15:36:05;;;;;;;3.42;1.52;;;5.70;99.90;;;4.03;97.40;100054.50;2567071;30;138605;-40
2021/12/05 15:38:35;;;;;;;2.80;1.38;;;5.70;99.90;;;3.98;97.52;100055.06;2569912;30;138236;-40
2021/12/05 15:41:09;;;;;;;3.10;1.50;;;5.70;99.90;;;3.85;97.63;100038.72;2570713;30;138298;-40
2021/12/05 15:43:41;;;;;;;3.92;1.70;;;5.70;99.90;;;3.96;98.23;100061.66;2568605;30;137593;-40
2021/12/05 15:46:13;;;;;;;3.60;1.67;;;5.60;99.90;;;3.94;98.39;100066.41;2569381;30;138193;-40
2021/12/05 15:48:45;;;;;;;2.83;1.55;;;5.70;99.90;;;3.92;99.04;100063.91;2572421;30;137555;-40
2021/12/05 15:51:13;;;;;;;2.72;1.60;;;5.60;99.90;;;3.87;99.58;100069.88;2569333;30;137180;-40
2021/12/05 15:53:41;;;;;;;;;;;5.60;99.90;;;3.83;99.85;100073.97;2566775;30;137518;-40
2021/12/05 15:56:16;;;;;;;4.40;1.77;;;5.60;99.90;;;3.79;100.00;100085.31;2570050;30;138168;-40
2021/12/05 15:59:08;;;;;;;6.32;1.90;;;5.50;99.90;;;3.73;100.00;100084.22;2569190;30;137241;-40
2021/12/05 16:01:38;;;;;;;3.25;1.75;;;5.50;99.90;;;3.69;100.00;100097.22;2568499;30;138508;-40
2021/12/05 16:04:19;;;;;;;3.78;1.35;;;5.40;99.90;;;3.68;100.00;100108.19;2568386;30;136805;-40
2021/12/05 16:06:49;;;;;;;2.22;1.20;;;5.40;99.90;;;3.65;100.00;100097.78;2569461;30;137337;-40
2021/12/05 16:09:23;;;;;;;2.95;1.60;;;5.40;99.90;;;3.64;100.00;100109.59;2569494;30;137495;-40
2021/12/05 16:12:10;;;;;;;3.63;1.80;;;5.40;99.90;;;3.59;100.00;100108.28;2569746;30;138166;-40